Flight Track Log - Related Links

Times and Time Zones

All times are in EDT time to prevent confusion due to time zone crossing. See the N875DM flight status page for this flight to view local times or setup timezone preferences in your user account.

Time Position Orientation Groundspeed Altitude Reporting Facility
EDT Latitude Longitude Course Direction KTS MPH feet Rate Location/Type
Sat 11:08:12 AM 41.3039 -70.1494 344° North 184 212 4,500  Level Boston Center
Sat 11:09:12 AM 41.3458 -70.1644 345° North 172 198 6,200 1,550 Climbing Boston Center
Sat 11:10:12 AM 41.3778 -70.1964 323° Northwest 153 176 7,600 1,200 Climbing Boston Center
Sat 11:11:12 AM 41.3892 -70.2514 285° West 147 169 8,600 1,000 Climbing Boston Center
Sat 11:12:00 AM 41.3805 -70.6155 256° West  Level FlightAware Approximate
Sat 11:12:12 AM 41.3906 -70.3178 272° West 152 175 9,600  Level Boston Center
Sat 11:13:12 AM 41.3894 -70.3786 269° West 159 183 10,800 1,200 Climbing Boston Center
Sat 11:14:12 AM 41.3906 -70.4367 271° West 159 183 12,000 1,000 Climbing Boston Center
Sat 11:15:12 AM 41.3939 -70.5003 274° West 164 189 12,800 850 Climbing Boston Center
Sat 11:16:12 AM 41.3947 -70.5556 271° West 164 189 13,700 600 Climbing Boston Center
Sat 11:17:12 AM 41.3939 -70.6278 269° West 175 201 14,000 150 Climbing Boston Center
Sat 11:18:12 AM 41.3803 -70.6917 254° West 189 217 14,000  Level Boston Center
Sat 11:19:12 AM 41.3606 -70.7697 251° West 206 237 14,000  Level Boston Center
Sat 11:20:12 AM 41.3447 -70.8308 251° West 200 230 14,000 -50 Level Boston Center
Sat 11:21:12 AM 41.3292 -70.9003 253° West 187 215 13,900 -50 Descending Boston Center
Sat 11:22:12 AM 41.3153 -70.9586 252° West 187 215 13,900  Level Boston Center
Sat 11:23:12 AM 41.2994 -71.0308 254° West 187 215 13,900  Level Boston Center
Sat 11:24:12 AM 41.2878 -71.0892 255° West 187 215 13,900  Level Boston Center
Sat 11:25:12 AM 41.2697 -71.1586 251° West 187 215 13,900  Level Boston Center
Sat 11:26:12 AM 41.2539 -71.2197 251° West 187 215 13,900  Level Boston Center
Sat 11:27:12 AM 41.2400 -71.2833 254° West 187 215 13,900  Level Boston Center
Sat 11:28:12 AM 41.2217 -71.3500 250° West 192 221 13,900 150 Level Boston Center
Sat 11:29:12 AM 41.2058 -71.4192 253° West 192 221 14,200 300 Climbing Boston Center
Sat 11:30:12 AM 41.1856 -71.4831 247° West 192 221 14,500 150 Climbing Boston Center
Sat 11:31:12 AM 41.1672 -71.5522 251° West 192 221 14,500  Level Boston Center
Sat 11:32:12 AM 41.1469 -71.6214 249° West 197 227 14,500  Level Boston Center
Sat 11:33:12 AM 41.1267 -71.6878 248° West 197 227 14,500  Level Boston Center
Sat 11:34:12 AM 41.1083 -71.7597 251° West 197 227 14,500  Level Boston Center
Sat 11:35:24 AM 41.0817 -71.8369 245° Southwest 197 227 14,500  Level Boston Center
Sat 11:36:24 AM 41.0653 -71.8950 249° West 197 227 14,500  Level Boston Center
Sat 11:37:24 AM 41.0428 -71.9586 245° Southwest 197 227 14,500  Level Boston Center
Sat 11:38:24 AM 41.0242 -72.0219 249° West 197 227 14,500  Level Boston Center
Sat 11:39:24 AM 41.0056 -72.0853 249° West 197 227 14,500  Level Boston Center
Sat 11:40:24 AM 40.9869 -72.1514 250° West 197 227 14,500  Level Boston Center
Sat 11:41:24 AM 40.9664 -72.2175 248° West 197 227 14,500  Level Boston Center
Sat 11:42:24 AM 40.9456 -72.2833 247° West 197 227 14,500  Level Boston Center
Sat 11:43:24 AM 40.9269 -72.3494 250° West 197 227 14,500  Level Boston Center
Sat 11:44:24 AM 40.9061 -72.4125 246° West 197 227 14,500  Level Boston Center
Sat 11:45:24 AM 40.8875 -72.4786 250° West 197 227 14,500  Level Boston Center
Sat 11:46:24 AM 40.8664 -72.5417 246° West 197 227 14,500  Level Boston Center
Sat 11:47:24 AM 40.8456 -72.6103 248° West 197 227 14,500  Level Boston Center
Sat 11:48:24 AM 40.8267 -72.6897 253° West 197 227 14,500  Level Boston Center
Sat 11:49:24 AM 40.8058 -72.7528 246° West 197 227 14,500  Level Boston Center
Sat 11:50:24 AM 40.7867 -72.8211 250° West 197 227 14,500  Level Boston Center
Sat 11:51:24 AM 40.7678 -72.8839 248° West 192 221 14,500  Level Boston Center
Sat 11:52:24 AM 40.7467 -72.9469 246° West 192 221 14,500  Level Boston Center
Sat 11:53:24 AM 40.7233 -73.0153 246° West 192 221 14,500  Level Boston Center
Sat 11:54:24 AM 40.7042 -73.0806 249° West 192 221 14,500  Level Boston Center
Sat 11:55:24 AM 40.6831 -73.1461 247° West 192 221 14,500  Level Boston Center
Sat 11:56:24 AM 40.6639 -73.2117 249° West 192 221 14,500  Level Boston Center
Sat 11:57:24 AM 40.6425 -73.2797 248° West 192 221 14,500  Level Boston Center
Sat 11:58:24 AM 40.6233 -73.3425 248° West 197 227 14,500  Level Boston Center
Sat 11:59:24 AM 40.6042 -73.4050 248° West 197 227 14,500  Level Boston Center
Sat 12:00:27 PM 40.5833 -73.4833 251° West 195 224 14,500  Level New York TRACON
Sat 12:01:28 PM 40.5667 -73.5500 252° West 201 231 14,500  Level New York TRACON
Sat 12:02:27 PM 40.5333 -73.6167 237° Southwest 201 231 14,500  Level New York TRACON
Sat 12:03:27 PM 40.5167 -73.6833 252° West 207 238 14,500  Level New York TRACON
Sat 12:04:27 PM 40.5000 -73.7500 252° West 209 241 14,500  Level New York TRACON
Sat 12:05:28 PM 40.4667 -73.8167 237° Southwest 204 235 14,500  Level New York TRACON
Sat 12:06:28 PM 40.4500 -73.8833 252° West 201 231 14,500 -100 Level New York TRACON
Sat 12:07:28 PM 40.4333 -73.9500 252° West 207 238 14,300 -500 Descending New York TRACON
Sat 12:08:28 PM 40.4000 -74.0167 237° Southwest 220 253 13,500 -810 Descending New York TRACON
Sat 12:09:34 PM 40.3833 -74.1000 255° West 226 260 12,600 -850 Descending New York TRACON
Sat 12:10:28 PM 40.3500 -74.1833 242° Southwest 232 267 11,800 -842 Descending New York TRACON
Sat 12:11:28 PM 40.3333 -74.2500 252° West 234 269 11,000 -800 Descending New York TRACON
Sat 12:13:00 PM 40.2960 -74.3453 246° West  Level FlightAware Approximate
Sat 12:20:00 PM 40.1451 -74.7932 237° Southwest  Level FlightAware Approximate
Sat 12:21:00 PM 40.1273 -74.8577 252° West  Level FlightAware Approximate
Sat 12:22:00 PM 40.1010 -74.9157 217° Southwest  Level FlightAware Approximate
Sat 12:23:00 PM 40.0756 -74.9776 242° Southwest  Level FlightAware Approximate
Sat 12:24:00 PM 40.0667 -75.0000 242° Southwest  Level FlightAware Approximate
Sat 12:25:00 PM 40.0819 -75.0106 242° Southwest  Level Estimated
Sat 12:26:00 PM 40.0819 -75.0106 242° Southwest  Level Estimated
Sat 12:27:00 PM 40.0819 -75.0106 242° Southwest  Level Estimated
Sat 12:28:00 PM 40.0819 -75.0106 242° Southwest  Level Estimated
Sat 12:29:00 PM 40.0819 -75.0106 242° Southwest  Level Estimated
Sat 12:30:00 PM 40.0819 -75.0106 242° Southwest  Level Estimated
Sat 12:31:00 PM 40.0819 -75.0106 242° Southwest  Level Estimated
Sat 12:32:00 PM 40.0819 -75.0106 242° Southwest  Level Estimated
Sat 12:33:00 PM 40.0819 -75.0106 242° Southwest  Level Estimated
Sat 12:34:00 PM 40.0819 -75.0106 242° Southwest  Level Estimated
Sat 12:35:00 PM 40.0819 -75.0106 242° Southwest  Level Estimated
Sat 12:36:00 PM 40.0819 -75.0106 242° Southwest  Level Estimated

Login

Don't have an account? Register now (free) for customized features, flight alerts, and more!